Roanoke — WDD9656 — position and weather

sailwx.info

Track history (hours):
 
Tides and Currents Weather Stations Pressure Air Temp Water Temp Dewpoint Dewpoint Depression Visibility Wind Speed Wind Dir Waves Ship Positions

Roanoke

Owner: Vane Line Bunkering, Philadelphia, PA. More information available from US FCC via Universal Licensing System and Coast Guard Vessel Documentation Center.

Last reported at 2017-Aug-21 14:02 UTC. Time now 2017-Aug-23 19:35 UTC.
Position N 38°19' W 075°44'.

Length 32 m; draft 13 m.

Type: Towing. MMSI: 367314510.

Date/timePositionNaut miles runAvg speedWind from/ knotsBaromVisibWave heightAir tempDewpointWater temp
2017-Aug-21 14:02N 38°19' W 075°44'0 4.8
2017-Aug-21 14:00N 38°19' W 075°44'2 3.9
2017-Aug-21 13:30N 38°18' W 075°46'17 2.5
2017-Aug-21 06:55N 38°04' W 075°57'0 0.0
2017-Aug-21 05:54N 38°04' W 075°57'13 0.3
2017-Aug-19 12:42N 38°15' W 075°50'2 6.6
2017-Aug-19 12:20N 38°16' W 075°47'4 6.5
2017-Aug-19 11:43N 38°19' W 075°44'1 6.1
2017-Aug-19 11:29N 38°21' W 075°43'3 5.3
2017-Aug-19 11:00N 38°20' W 075°40'3 5.0
2017-Aug-19 10:27N 38°22' W 075°37'21 0.7
2017-Aug-18 04:24N 38°10' W 075°59'1 1.4
2017-Aug-18 03:57N 38°09' W 075°59'1 3.2
2017-Aug-18 03:30N 38°08' W 075°59'1 2.7
2017-Aug-18 03:00N 38°06' W 075°59'3 5.5
2017-Aug-18 02:28N 38°03' W 075°57'37 8.3
2017-Aug-17 22:03N 37°28' W 076°06'0 9.4
2017-Aug-17 22:00N 37°27' W 076°06'5 9.2
2017-Aug-17 21:26N 37°22' W 076°09'5 8.7
2017-Aug-17 20:51N 37°18' W 076°12'13 0.8
2017-Aug-17 05:26N 37°14' W 076°27'20 0.6
2017-Aug-15 19:39N 36°55' W 076°20'1 6.6
2017-Aug-15 19:30N 36°54' W 076°20'4 7.7
2017-Aug-15 19:00N 36°51' W 076°18'3 6.0
2017-Aug-15 18:31N 36°48' W 076°18'0 0.3
2017-Aug-15 18:00N 36°48' W 076°18'0 0.0
2017-Aug-15 17:30N 36°48' W 076°18'0 0.0
2017-Aug-15 17:00N 36°48' W 076°18'0 0.0
2017-Aug-15 16:30N 36°48' W 076°18'0 0.0
2017-Aug-15 16:00N 36°48' W 076°18'0 0.0
2017-Aug-15 15:30N 36°48' W 076°18'0 0.0
2017-Aug-15 15:00N 36°48' W 076°18'0 0.0
2017-Aug-15 14:30N 36°48' W 076°18'0 0.0
2017-Aug-15 14:00N 36°48' W 076°18'0 0.0
2017-Aug-15 13:30N 36°48' W 076°18'0 0.0
2017-Aug-15 13:00N 36°48' W 076°18'0 0.0
2017-Aug-15 12:30N 36°48' W 076°18'0 0.0
2017-Aug-15 12:00N 36°48' W 076°18'0 0.0
2017-Aug-15 11:30N 36°48' W 076°18'0 0.0
2017-Aug-15 11:00N 36°48' W 076°18'0 0.0
2017-Aug-15 10:30N 36°48' W 076°18'0 0.0
2017-Aug-15 10:00N 36°48' W 076°18'0 0.0
2017-Aug-15 09:30N 36°48' W 076°18'0 0.5
2017-Aug-15 09:00N 36°48' W 076°17'4 8.0
2017-Aug-15 08:30N 36°52' W 076°19'5 8.7
2017-Aug-15 07:59N 36°56' W 076°20'46 9.2
2017-Aug-15 02:59N 37°40' W 076°02'6 9.8
2017-Aug-15 02:24N 37°45' W 075°59'410.0
2017-Aug-15 02:00N 37°49' W 075°57'5 9.5
2017-Aug-15 01:30N 37°54' W 075°57'5 9.4
2017-Aug-15 01:00N 37°58' W 075°56'5 7.6
2017-Aug-15 00:23N 38°03' W 075°57'3 8.7
2017-Aug-15 00:00N 38°06' W 075°58'5 8.4
2017-Aug-14 23:28N 38°11' W 075°59'4 7.6
2017-Aug-14 23:00N 38°13' W 075°55'5 7.2
2017-Aug-14 22:20N 38°15' W 075°50'9 4.2
2017-Aug-14 20:18N 38°20' W 075°41'4 0.3
2017-Aug-14 09:59N 38°22' W 075°37'0 0.0
2017-Aug-14 08:33N 38°22' W 075°37'0 0.0
2017-Aug-14 08:10N 38°22' W 075°37'0 0.0
2017-Aug-14 07:59N 38°22' W 075°37'11 0.5
2017-Aug-13 10:17N 38°15' W 075°48'2 6.9
2017-Aug-13 10:01N 38°15' W 075°51'5 6.7
2017-Aug-13 09:18N 38°12' W 075°56'2 6.2
2017-Aug-13 08:55N 38°11' W 075°59'0 0.4
2017-Aug-13 08:30N 38°11' W 075°59'0 0.1
2017-Aug-13 07:54N 38°11' W 075°59'  
Track history (hours):
 
Tides and Currents Weather Stations Pressure Air Temp Water Temp Dewpoint Dewpoint Depression Visibility Wind Speed Wind Dir Waves Ship Positions

Roanoke

Owner: Vane Line Bunkering, Philadelphia, PA. More information available from US FCC via Universal Licensing System and Coast Guard Vessel Documentation Center.

Last reported at 2017-Aug-21 14:02 UTC. Time now 2017-Aug-23 19:35 UTC.
Position N 38°19' W 075°44'.

Length 32 m; draft 13 m.

Type: Towing. MMSI: 367314510.

Date/timePositionNaut miles runAvg speedWind from/ knotsBaromVisibWave heightAir tempDewpointWater temp
2017-Aug-21 14:02N 38°19' W 075°44'0 4.8
2017-Aug-21 14:00N 38°19' W 075°44'2 3.9
2017-Aug-21 13:30N 38°18' W 075°46'17 2.5
2017-Aug-21 06:55N 38°04' W 075°57'0 0.0
2017-Aug-21 05:54N 38°04' W 075°57'13 0.3
2017-Aug-19 12:42N 38°15' W 075°50'2 6.6
2017-Aug-19 12:20N 38°16' W 075°47'4 6.5
2017-Aug-19 11:43N 38°19' W 075°44'1 6.1
2017-Aug-19 11:29N 38°21' W 075°43'3 5.3
2017-Aug-19 11:00N 38°20' W 075°40'3 5.0
2017-Aug-19 10:27N 38°22' W 075°37'21 0.7
2017-Aug-18 04:24N 38°10' W 075°59'1 1.4
2017-Aug-18 03:57N 38°09' W 075°59'1 3.2
2017-Aug-18 03:30N 38°08' W 075°59'1 2.7
2017-Aug-18 03:00N 38°06' W 075°59'3 5.5
2017-Aug-18 02:28N 38°03' W 075°57'37 8.3
2017-Aug-17 22:03N 37°28' W 076°06'0 9.4
2017-Aug-17 22:00N 37°27' W 076°06'5 9.2
2017-Aug-17 21:26N 37°22' W 076°09'5 8.7
2017-Aug-17 20:51N 37°18' W 076°12'13 0.8
2017-Aug-17 05:26N 37°14' W 076°27'20 0.6
2017-Aug-15 19:39N 36°55' W 076°20'1 6.6
2017-Aug-15 19:30N 36°54' W 076°20'4 7.7
2017-Aug-15 19:00N 36°51' W 076°18'3 6.0
2017-Aug-15 18:31N 36°48' W 076°18'0 0.3
2017-Aug-15 18:00N 36°48' W 076°18'0 0.0
2017-Aug-15 17:30N 36°48' W 076°18'0 0.0
2017-Aug-15 17:00N 36°48' W 076°18'0 0.0
2017-Aug-15 16:30N 36°48' W 076°18'0 0.0
2017-Aug-15 16:00N 36°48' W 076°18'0 0.0
2017-Aug-15 15:30N 36°48' W 076°18'0 0.0
2017-Aug-15 15:00N 36°48' W 076°18'0 0.0
2017-Aug-15 14:30N 36°48' W 076°18'0 0.0
2017-Aug-15 14:00N 36°48' W 076°18'0 0.0
2017-Aug-15 13:30N 36°48' W 076°18'0 0.0
2017-Aug-15 13:00N 36°48' W 076°18'0 0.0
2017-Aug-15 12:30N 36°48' W 076°18'0 0.0
2017-Aug-15 12:00N 36°48' W 076°18'0 0.0
2017-Aug-15 11:30N 36°48' W 076°18'0 0.0
2017-Aug-15 11:00N 36°48' W 076°18'0 0.0
2017-Aug-15 10:30N 36°48' W 076°18'0 0.0
2017-Aug-15 10:00N 36°48' W 076°18'0 0.0
2017-Aug-15 09:30N 36°48' W 076°18'0 0.5
2017-Aug-15 09:00N 36°48' W 076°17'4 8.0
2017-Aug-15 08:30N 36°52' W 076°19'5 8.7
2017-Aug-15 07:59N 36°56' W 076°20'46 9.2
2017-Aug-15 02:59N 37°40' W 076°02'6 9.8
2017-Aug-15 02:24N 37°45' W 075°59'410.0
2017-Aug-15 02:00N 37°49' W 075°57'5 9.5
2017-Aug-15 01:30N 37°54' W 075°57'5 9.4
2017-Aug-15 01:00N 37°58' W 075°56'5 7.6
2017-Aug-15 00:23N 38°03' W 075°57'3 8.7
2017-Aug-15 00:00N 38°06' W 075°58'5 8.4
2017-Aug-14 23:28N 38°11' W 075°59'4 7.6
2017-Aug-14 23:00N 38°13' W 075°55'5 7.2
2017-Aug-14 22:20N 38°15' W 075°50'9 4.2
2017-Aug-14 20:18N 38°20' W 075°41'4 0.3
2017-Aug-14 09:59N 38°22' W 075°37'0 0.0
2017-Aug-14 08:33N 38°22' W 075°37'0 0.0
2017-Aug-14 08:10N 38°22' W 075°37'0 0.0
2017-Aug-14 07:59N 38°22' W 075°37'11 0.5
2017-Aug-13 10:17N 38°15' W 075°48'2 6.9
2017-Aug-13 10:01N 38°15' W 075°51'5 6.7
2017-Aug-13 09:18N 38°12' W 075°56'2 6.2
2017-Aug-13 08:55N 38°11' W 075°59'0 0.4
2017-Aug-13 08:30N 38°11' W 075°59'0 0.1
2017-Aug-13 07:54N 38°11' W 075°59'  

Dump ship's entire track history